Terminal Aerodrome Forecast
Issued by NWS Wilmington, NC

Home | Current Version | Previous Version | Text Only | Print | Product List | Glossary On
Versions: 1 2 3 4 5 6 7 8 9 10 11 12 13 14 15 16 17 18 19 20 21 22 23 24 25 26 27 28
000
FTUS42 KILM 272023 AAB
TAFILM
TAF AMD
KILM 272023Z 2720/2818 02012G18KT 6SM -RA BKN009 OVC018
      TEMPO 2720/2721 2SM +TSRA SCT009 BKN018CB
     FM272200 01010KT P6SM SCT009 BKN020 OVC080
     FM281300 32011G15KT P6SM BKN120=

USA.gov is the U.S. government's official web portal to all federal, state and local government web resources and services.